Time;durP1;ratioP1;P1;durP2;ratioP2;P2;SDS_P1;SDS_P2;PMS_P1;PMS_P2;Temp;Humidity;BMP_temperature;BMP_pressure;BME280_temperature;BME280_humidity;BME280_pressure;Samples;Min_cycle;Max_cycle;Signal;HPM_P1;HPM_P2
2022/03/13 00:00:47;;;;;;;2.50;2.20;;;;;;;3.68;29.87;101452.28;5043694;28;20044;-63
2022/03/13 00:03:14;;;;;;;7.20;1.85;;;;;;;3.65;30.21;101447.03;5043958;28;20135;-63
2022/03/13 00:05:42;;;;;;;5.75;2.47;;;;;;;3.58;30.33;101447.63;5043859;28;20024;-63
2022/03/13 00:08:32;;;;;;;13.38;2.70;;;;;;;3.63;30.35;101453.81;5043669;28;20025;-62
2022/03/13 00:11:05;;;;;;;10.63;5.03;;;;;;;3.35;30.58;101469.03;5043827;28;20032;-62
2022/03/13 00:13:33;;;;;;;3.45;2.28;;;;;;;3.46;30.66;101453.19;5043511;28;20026;-62
2022/03/13 00:16:08;;;;;;;4.53;2.30;;;;;;;3.51;30.61;101446.53;5043226;28;20029;-62
2022/03/13 00:18:35;;;;;;;3.80;2.13;;;;;;;3.45;30.76;101449.72;5043887;28;20037;-62
2022/03/13 00:21:03;;;;;;;6.32;2.28;;;;;;;3.57;30.71;101430.47;5043427;28;20021;-64
2022/03/13 00:23:29;;;;;;;8.52;3.75;;;;;;;3.39;30.74;101430.63;5043483;28;20025;-63
2022/03/13 00:25:55;;;;;;;4.22;1.83;;;;;;;3.35;31.05;101442.50;5043335;28;20029;-63
2022/03/13 00:28:20;;;;;;;2.53;1.58;;;;;;;3.58;30.69;101440.78;5043869;28;20055;-64
2022/03/13 00:30:45;;;;;;;3.60;2.22;;;;;;;3.37;30.95;101438.28;5043201;28;20037;-63
2022/03/13 00:33:11;;;;;;;5.30;2.90;;;;;;;3.49;30.80;101430.19;5043365;28;20026;-63
2022/03/13 00:35:38;;;;;;;7.28;2.13;;;;;;;3.60;30.85;101433.16;5043310;28;20040;-62
2022/03/13 00:38:04;;;;;;;4.13;2.25;;;;;;;3.52;31.01;101420.03;5043350;28;20073;-62
2022/03/13 00:40:29;;;;;;;8.77;3.58;;;;;;;3.44;31.14;101427.44;5043233;28;20014;-63
2022/03/13 00:42:56;;;;;;;6.55;2.28;;;;;;;3.52;31.25;101421.72;5043091;28;20029;-63
2022/03/13 00:45:21;;;;;;;6.75;2.42;;;;;;;3.27;31.65;101429.38;5043040;28;20048;-64
2022/03/13 00:47:47;;;;;;;4.55;2.85;;;;;;;3.49;31.46;101419.91;5043202;28;20119;-63
2022/03/13 00:50:12;;;;;;;6.82;3.95;;;;;;;3.45;31.52;101413.78;5042717;28;20025;-63
2022/03/13 00:52:38;;;;;;;3.35;2.40;;;;;;;3.51;31.58;101418.28;5043041;28;20057;-63
2022/03/13 00:55:04;;;;;;;4.75;2.35;;;;;;;3.64;31.48;101417.06;5043196;28;20080;-63
2022/03/13 00:57:29;;;;;;;8.77;4.03;;;;;;;3.38;31.57;101413.50;5042855;28;20021;-62
2022/03/13 00:59:55;;;;;;;8.13;3.40;;;;;;;3.44;31.75;101412.03;5042888;28;20080;-63
2022/03/13 01:02:20;;;;;;;12.32;2.80;;;;;;;3.24;32.14;101418.13;5042716;28;20053;-63
2022/03/13 01:04:45;;;;;;;4.53;2.20;;;;;;;3.22;32.26;101413.81;5042784;28;20033;-63
2022/03/13 01:07:14;;;;;;;3.40;2.25;;;;;;;3.37;32.15;101422.03;5042915;28;20029;-63
2022/03/13 01:09:39;;;;;;;6.22;2.47;;;;;;;3.45;31.92;101413.78;5042992;28;20139;-64
2022/03/13 01:12:05;;;;;;;2.58;1.83;;;;;;;3.37;32.07;101424.59;5042678;28;20277;-62
2022/03/13 01:14:32;;;;;;;5.30;2.85;;;;;;;3.21;32.54;101430.00;5042452;28;20120;-62
2022/03/13 01:17:04;;;;;;;5.80;2.45;;;;;;;3.21;32.51;101430.00;5042850;28;20334;-62
2022/03/13 01:19:29;;;;;;;6.07;3.13;;;;;;;3.26;32.54;101439.59;5042678;28;20041;-62
2022/03/13 01:21:55;;;;;;;7.22;2.88;;;;;;;3.31;32.65;101435.47;5042482;28;20029;-62
2022/03/13 01:24:27;;;;;;;5.03;2.53;;;;;;;3.28;32.69;101435.38;5042637;28;20028;-61
2022/03/13 01:26:53;;;;;;;;;;;;;;;3.15;32.90;101427.22;5043322;28;20025;-61
2022/03/13 01:29:18;;;;;;;5.53;2.92;;;;;;;3.35;32.81;101430.53;5042612;28;20370;-63
2022/03/13 01:31:46;;;;;;;4.30;2.15;;;;;;;3.20;32.94;101433.41;5042187;28;20110;-60
2022/03/13 01:34:25;;;;;;;6.28;4.03;;;;;;;3.11;33.16;101438.19;5042504;28;20029;-63
2022/03/13 01:36:50;;;;;;;5.05;3.05;;;;;;;3.20;33.36;101428.25;5042330;28;20366;-63
2022/03/13 01:39:15;;;;;;;4.20;3.45;;;;;;;2.97;33.48;101433.38;5045977;28;20040;-63
2022/03/13 01:41:41;;;;;;;6.47;3.72;;;;;;;3.07;33.49;101437.19;5028677;28;20014;-62
2022/03/13 01:44:06;;;;;;;5.10;2.97;;;;;;;3.31;33.29;101436.38;5046716;28;20410;-62
2022/03/13 01:46:31;;;;;;;8.18;4.25;;;;;;;2.99;33.83;101438.56;5046424;28;20095;-62
2022/03/13 01:48:59;;;;;;;6.70;3.03;;;;;;;3.04;34.07;101438.72;5028543;28;20017;-62
2022/03/13 01:51:26;;;;;;;6.50;2.80;;;;;;;3.15;33.90;101441.72;5046193;28;20044;-62
2022/03/13 01:53:53;;;;;;;5.75;2.63;;;;;;;3.07;34.04;101436.28;5046058;28;20040;-62
2022/03/13 01:56:20;;;;;;;6.82;4.40;;;;;;;3.00;34.18;101444.56;5046573;28;20115;-62
2022/03/13 01:58:49;;;;;;;4.18;3.35;;;;;;;3.02;34.37;101453.22;5046024;28;20470;-62
2022/03/13 02:01:16;;;;;;;10.38;4.75;;;;;;;3.00;34.43;101457.41;5045834;28;20104;-62
2022/03/13 02:03:42;;;;;;;10.25;5.18;;;;;;;2.81;34.73;101457.53;5046550;28;20025;-62
2022/03/13 02:06:07;;;;;;;5.90;3.58;;;;;;;2.64;34.93;101456.84;5046289;28;20028;-61
2022/03/13 02:08:36;;;;;;;5.53;3.45;;;;;;;2.73;35.28;101446.09;5046342;28;20032;-62
2022/03/13 02:11:02;;;;;;;10.95;5.45;;;;;;;2.51;35.24;101459.72;5045996;28;20442;-62
2022/03/13 02:13:28;;;;;;;12.98;5.53;;;;;;;2.41;35.65;101461.88;5046023;28;20087;-62
2022/03/13 02:15:55;;;;;;;7.80;4.45;;;;;;;2.50;35.62;101463.06;5045857;28;20026;-62
2022/03/13 02:18:21;;;;;;;11.43;5.53;;;;;;;2.35;35.93;101462.50;5045913;28;20028;-61
2022/03/13 02:20:46;;;;;;;10.63;4.72;;;;;;;2.26;36.18;101462.09;5045847;28;20018;-62
2022/03/13 02:23:26;;;;;;;10.18;6.00;;;;;;;2.26;36.28;101456.09;5045915;28;20089;-62
2022/03/13 02:25:53;;;;;;;10.20;3.83;;;;;;;2.32;36.43;101467.50;5045909;28;20085;-62
2022/03/13 02:28:21;;;;;;;9.90;4.65;;;;;;;2.30;36.47;101471.66;5045980;28;20105;-62
2022/03/13 02:30:49;;;;;;;6.65;2.97;;;;;;;2.23;36.71;101460.31;5045384;28;20029;-62
2022/03/13 02:33:19;;;;;;;11.32;4.53;;;;;;;2.32;36.93;101461.47;5045719;28;20021;-62
2022/03/13 02:36:22;;;;;;;11.07;5.05;;;;;;;2.11;37.32;101454.63;5045589;28;20028;-62
2022/03/13 02:38:48;;;;;;;6.38;3.50;;;;;;;2.06;37.55;101448.44;5032804;28;20051;-61
2022/03/13 02:41:13;;;;;;;12.38;4.72;;;;;;;1.98;37.90;101451.53;5045600;28;20077;-61
2022/03/13 02:43:39;;;;;;;9.63;4.88;;;;;;;1.87;37.95;101449.31;5045394;28;20021;-61
2022/03/13 02:46:18;;;;;;;9.63;3.97;;;;;;;1.94;38.36;101452.22;5045173;28;20030;-61
2022/03/13 02:48:44;;;;;;;11.10;5.28;;;;;;;2.09;38.39;101461.38;5045349;28;20027;-62
2022/03/13 02:51:09;;;;;;;9.02;3.72;;;;;;;1.94;38.51;101449.66;5045161;28;20045;-62
2022/03/13 02:53:34;;;;;;;10.80;4.45;;;;;;;1.92;38.79;101460.63;5044951;28;20029;-62
2022/03/13 02:55:59;;;;;;;10.30;4.40;;;;;;;1.81;39.13;101457.59;5045227;28;20040;-61
2022/03/13 02:58:25;;;;;;;11.98;5.00;;;;;;;1.75;39.29;101449.63;5044960;28;20442;-61
2022/03/13 03:00:52;;;;;;;10.95;5.60;;;;;;;1.71;39.57;101456.31;5044426;28;20029;-61
2022/03/13 03:03:19;;;;;;;5.90;2.92;;;;;;;1.85;39.78;101451.81;5044989;28;20176;-62
2022/03/13 03:05:45;;;;;;;6.30;3.00;;;;;;;2.21;39.66;101451.66;5044944;28;20040;-62
2022/03/13 03:08:11;;;;;;;8.43;3.38;;;;;;;1.93;40.28;101444.47;5045009;28;20044;-63
2022/03/13 03:10:38;;;;;;;9.73;3.45;;;;;;;2.11;40.12;101449.50;5044740;28;20505;-63
2022/03/13 03:13:04;;;;;;;7.95;4.22;;;;;;;2.10;40.27;101445.19;5045157;28;20025;-63
2022/03/13 03:15:29;;;;;;;9.85;3.30;;;;;;;2.01;40.63;101438.00;5044416;28;20034;-62
2022/03/13 03:17:55;;;;;;;6.28;4.00;;;;;;;2.16;40.47;101450.59;5044722;28;20026;-62
2022/03/13 03:20:21;;;;;;;8.05;3.67;;;;;;;1.93;40.92;101450.44;5044853;28;20029;-62
2022/03/13 03:22:49;;;;;;;7.10;4.13;;;;;;;1.89;41.28;101448.56;5044934;28;20120;-62
2022/03/13 03:25:21;;;;;;;5.47;2.92;;;;;;;1.95;41.54;101447.97;5026441;28;20048;-63
2022/03/13 03:27:46;;;;;;;10.20;4.10;;;;;;;1.82;41.52;101449.97;5044872;28;20116;-62
2022/03/13 03:30:12;;;;;;;4.57;3.17;;;;;;;2.00;41.56;101450.75;5026482;28;20442;-62
2022/03/13 03:32:37;;;;;;;8.35;3.15;;;;;;;1.85;41.75;101441.56;5044424;28;20022;-62
2022/03/13 03:35:03;;;;;;;5.65;3.25;;;;;;;2.02;41.97;101441.41;5044468;28;20026;-63
2022/03/13 03:37:32;;;;;;;3.90;2.78;;;;;;;1.72;42.27;101446.16;5044195;28;20045;-62
2022/03/13 03:39:58;;;;;;;14.07;3.88;;;;;;;1.95;42.02;101453.97;5044352;28;20084;-62
2022/03/13 03:42:23;;;;;;;9.07;4.88;;;;;;;1.61;42.93;101435.41;5044198;28;20052;-62
2022/03/13 03:44:48;;;;;;;14.60;5.72;;;;;;;1.43;43.04;101452.50;5043993;28;20029;-61
2022/03/13 03:47:14;;;;;;;11.63;5.00;;;;;;;1.27;43.37;101445.78;5044454;28;20022;-63
2022/03/13 03:49:40;;;;;;;8.32;4.72;;;;;;;1.16;43.80;101458.97;5044202;28;20021;-62
2022/03/13 03:52:06;;;;;;;10.75;4.95;;;;;;;1.41;43.49;101462.66;5043943;28;20017;-62
2022/03/13 03:54:31;;;;;;;13.68;5.68;;;;;;;1.16;43.75;101469.19;5044086;28;20017;-62
2022/03/13 03:56:57;;;;;;;6.93;3.40;;;;;;;1.31;43.94;101453.66;5044004;28;20092;-62
2022/03/13 03:59:23;;;;;;;8.55;4.13;;;;;;;1.13;44.32;101463.94;5043999;28;20421;-62
2022/03/13 04:01:48;;;;;;;11.95;4.93;;;;;;;0.99;44.54;101466.69;5043178;28;20017;-61
2022/03/13 04:04:14;;;;;;;5.22;3.25;;;;;;;1.45;44.17;101458.56;5043795;28;20021;-62
2022/03/13 04:06:40;;;;;;;12.25;4.65;;;;;;;1.15;44.56;101472.53;5043847;28;20032;-61
2022/03/13 04:09:07;;;;;;;13.70;5.95;;;;;;;1.31;44.52;101474.13;5043808;28;20022;-61
2022/03/13 04:11:34;;;;;;;11.95;5.88;;;;;;;0.97;44.83;101475.09;5043639;28;20032;-64
2022/03/13 04:14:00;;;;;;;6.53;3.10;;;;;;;1.12;45.21;101469.81;5043756;28;20025;-62
2022/03/13 04:16:26;;;;;;;8.45;3.83;;;;;;;0.97;45.22;101465.75;5043536;28;20025;-61
2022/03/13 04:18:51;;;;;;;5.72;3.45;;;;;;;1.12;45.25;101472.38;5043606;28;20013;-62
2022/03/13 04:21:17;;;;;;;10.85;5.88;;;;;;;1.08;45.05;101473.06;5043361;28;20030;-61
2022/03/13 04:23:43;;;;;;;7.07;4.35;;;;;;;1.03;45.39;101480.50;5043505;28;20021;-61
2022/03/13 04:26:09;;;;;;;13.38;4.95;;;;;;;0.82;45.61;101481.22;5043781;28;20029;-61
2022/03/13 04:28:35;;;;;;;8.25;4.45;;;;;;;1.03;45.41;101483.06;5043565;28;20022;-61
2022/03/13 04:31:00;;;;;;;9.43;3.60;;;;;;;1.05;45.60;101452.44;5043105;28;20053;-62
2022/03/13 04:33:33;;;;;;;12.40;5.50;;;;;;;0.94;45.71;101477.50;5043375;28;20025;-61
2022/03/13 04:36:00;;;;;;;7.95;3.95;;;;;;;1.07;45.53;101478.97;5043087;28;20558;-61
2022/03/13 04:38:27;;;;;;;8.38;3.53;;;;;;;0.91;45.87;101475.66;5043409;28;20037;-61
2022/03/13 04:40:54;;;;;;;9.23;3.03;;;;;;;1.13;45.70;101478.38;5043375;28;20045;-62
2022/03/13 04:43:21;;;;;;;7.80;3.20;;;;;;;1.12;45.52;101480.06;5043273;28;20072;-61
2022/03/13 04:45:46;;;;;;;4.72;2.90;;;;;;;1.01;46.00;101476.13;5043198;28;20029;-63
2022/03/13 04:48:12;;;;;;;7.70;2.83;;;;;;;1.03;45.74;101477.94;5043423;28;20048;-61
2022/03/13 04:50:37;;;;;;;9.55;6.22;;;;;;;0.68;46.37;101480.53;5042954;28;20033;-60
2022/03/13 04:53:03;;;;;;;7.65;3.72;;;;;;;0.63;46.60;101475.97;5043180;28;20029;-61
2022/03/13 04:55:28;;;;;;;8.20;4.55;;;;;;;0.59;46.76;101480.09;5042703;28;20024;-61
2022/03/13 04:57:53;;;;;;;9.05;3.80;;;;;;;0.58;46.80;101484.31;5042887;28;20056;-61
2022/03/13 05:00:19;;;;;;;10.77;4.35;;;;;;;0.59;46.96;101473.28;5042693;28;20048;-62
2022/03/13 05:02:44;;;;;;;12.18;4.68;;;;;;;0.53;47.19;101472.13;5042701;28;20041;-60
2022/03/13 05:05:09;;;;;;;11.98;4.60;;;;;;;0.47;47.06;101478.66;5042733;28;20052;-62
2022/03/13 05:07:36;;;;;;;13.82;5.63;;;;;;;0.60;47.01;101477.59;5042881;28;20077;-62
2022/03/13 05:10:02;;;;;;;11.05;5.25;;;;;;;0.48;47.20;101471.84;5042691;28;20057;-61
2022/03/13 05:12:29;;;;;;;5.50;3.65;;;;;;;0.46;47.42;101482.00;5040862;28;20093;-61
2022/03/13 05:14:55;;;;;;;7.75;4.72;;;;;;;0.27;47.78;101481.88;5024549;28;20033;-61
2022/03/13 05:17:20;;;;;;;8.93;4.32;;;;;;;0.12;47.80;101480.28;5042768;28;20045;-61
2022/03/13 05:19:46;;;;;;;7.75;3.80;;;;;;;0.33;47.73;101480.53;5042698;28;20052;-60
2022/03/13 05:22:11;;;;;;;8.07;4.50;;;;;;;0.32;47.87;101480.44;5042264;28;20029;-61
2022/03/13 05:24:37;;;;;;;5.10;2.78;;;;;;;0.38;47.93;101475.66;5042554;28;20044;-61
2022/03/13 05:27:02;;;;;;;10.68;4.43;;;;;;;0.16;48.39;101478.78;5042660;28;20017;-62
2022/03/13 05:29:28;;;;;;;5.47;2.60;;;;;;;0.37;48.10;101466.22;5042646;28;20050;-62
2022/03/13 05:31:53;;;;;;;10.90;6.03;;;;;;;0.15;48.25;101477.88;5042255;28;20205;-62
2022/03/13 05:34:18;;;;;;;9.65;4.35;;;;;;;0.31;48.51;101474.44;5042770;28;20024;-62
2022/03/13 05:36:45;;;;;;;6.10;3.15;;;;;;;0.40;48.39;101481.69;5042356;28;20044;-61
2022/03/13 05:39:11;;;;;;;8.15;4.03;;;;;;;0.33;48.37;101477.09;5042915;28;20021;-62
2022/03/13 05:41:40;;;;;;;12.20;3.83;;;;;;;0.23;48.59;101480.84;5042455;28;20030;-62
2022/03/13 05:44:09;;;;;;;14.25;4.55;;;;;;;0.35;48.57;101483.16;5042667;28;20053;-62
2022/03/13 05:46:35;;;;;;;6.68;3.13;;;;;;;0.63;48.16;101484.53;5042299;28;20116;-63
2022/03/13 05:49:00;;;;;;;10.25;5.22;;;;;;;0.46;48.31;101483.69;5042288;28;20045;-62
2022/03/13 05:51:25;;;;;;;9.50;4.68;;;;;;;0.47;48.55;101491.44;5042086;28;20026;-61
2022/03/13 05:53:51;;;;;;;5.32;3.33;;;;;;;0.93;47.90;101489.41;5042294;28;20025;-63
2022/03/13 05:56:16;;;;;;;9.73;4.60;;;;;;;0.90;47.48;101493.47;5042286;28;20033;-62
2022/03/13 05:58:42;;;;;;;8.48;4.47;;;;;;;1.06;47.17;101495.13;5042364;28;20030;-62
2022/03/13 06:01:08;;;;;;;5.68;3.28;;;;;;;1.21;46.87;101493.31;5024190;28;20022;-62
2022/03/13 06:03:34;;;;;;;9.00;5.38;;;;;;;1.21;46.87;101493.31;5042540;28;20358;-62
2022/03/13 06:06:03;;;;;;;10.77;6.05;;;;;;;0.98;46.89;101464.94;5042424;28;20018;-62
2022/03/13 06:08:30;;;;;;;10.27;4.03;;;;;;;1.28;46.46;101491.03;5042323;28;20036;-61
2022/03/13 06:10:55;;;;;;;10.50;4.75;;;;;;;1.26;46.33;101502.88;5024140;28;20018;-62
2022/03/13 06:13:22;;;;;;;8.95;4.70;;;;;;;1.13;46.59;101497.19;5042393;28;20055;-62
2022/03/13 06:15:49;;;;;;;9.77;5.63;;;;;;;1.02;46.94;101490.66;5041940;28;20040;-62
2022/03/13 06:18:15;;;;;;;5.15;2.58;;;;;;;1.32;46.33;101500.59;5042237;28;20049;-62
2022/03/13 06:20:40;;;;;;;8.95;4.68;;;;;;;1.33;46.17;101499.78;5042000;28;20083;-62
2022/03/13 06:23:08;;;;;;;11.00;4.82;;;;;;;1.37;46.36;101504.28;5042219;28;20041;-62
2022/03/13 06:25:34;;;;;;;4.97;2.90;;;;;;;1.46;46.37;101496.13;5045866;28;20026;-62
2022/03/13 06:27:59;;;;;;;10.50;5.43;;;;;;;1.47;46.62;101485.97;5045764;28;20258;-62
2022/03/13 06:30:25;;;;;;;10.93;5.72;;;;;;;1.64;46.38;101488.44;5045256;28;20025;-61
2022/03/13 06:32:52;;;;;;;7.82;4.32;;;;;;;1.91;46.20;101492.16;5045556;28;20164;-62
2022/03/13 06:35:20;;;;;;;9.48;3.65;;;;;;;2.32;45.42;101492.25;5044353;28;20055;-61
2022/03/13 06:37:46;;;;;;;11.43;6.20;;;;;;;2.62;43.89;101491.78;5045244;28;20100;-62
2022/03/13 06:40:13;;;;;;;11.57;4.85;;;;;;;2.83;43.25;101484.13;5045450;28;20424;-62
2022/03/13 06:42:39;;;;;;;9.40;5.35;;;;;;;2.68;43.62;101486.94;5045556;28;20048;-62
2022/03/13 06:45:05;;;;;;;9.18;4.28;;;;;;;3.15;42.46;101486.22;5045044;28;20013;-62
2022/03/13 06:47:31;;;;;;;12.77;6.13;;;;;;;3.06;42.51;101488.44;5044092;28;20104;-62
2022/03/13 06:49:56;;;;;;;12.02;6.25;;;;;;;3.53;40.97;101485.97;5045334;28;20535;-62
2022/03/13 06:52:21;;;;;;;8.52;4.13;;;;;;;3.52;41.37;101491.03;5044920;28;20030;-63
2022/03/13 06:54:47;;;;;;;18.70;5.40;;;;;;;3.85;40.87;101480.28;5027509;28;20048;-63
2022/03/13 06:57:14;;;;;;;14.82;5.85;;;;;;;3.47;41.20;101455.81;5045342;28;20428;-63
2022/03/13 06:59:43;;;;;;;10.82;5.45;;;;;;;3.89;40.55;101464.16;5045004;28;20028;-63
2022/03/13 07:02:10;;;;;;;13.18;5.90;;;;;;;4.02;39.85;101477.47;5027638;28;20029;-62
2022/03/13 07:04:36;;;;;;;16.10;6.70;;;;;;;4.23;39.50;101477.34;5045398;28;20025;-63
2022/03/13 07:07:01;;;;;;;12.27;6.03;;;;;;;4.40;39.05;101488.22;5045122;28;20048;-62
2022/03/13 07:09:27;;;;;;;11.73;4.85;;;;;;;4.76;37.86;101467.97;5045121;28;20136;-62
2022/03/13 07:11:52;;;;;;;13.68;6.25;;;;;;;4.64;38.34;101484.75;5044882;28;20029;-62
2022/03/13 07:14:20;;;;;;;11.63;4.43;;;;;;;4.86;37.88;101464.84;5044972;28;20136;-63
2022/03/13 07:16:45;;;;;;;11.02;4.97;;;;;;;4.92;37.43;101490.78;5044640;28;20051;-62
2022/03/13 07:19:11;;;;;;;13.20;7.32;;;;;;;4.98;37.86;101478.94;5044913;28;20117;-63
2022/03/13 07:21:38;;;;;;;9.48;4.57;;;;;;;5.48;36.53;101465.03;5044678;28;20059;-63
2022/03/13 07:24:04;;;;;;;14.50;6.15;;;;;;;5.60;36.26;101486.00;5044649;28;20032;-63
2022/03/13 07:26:29;;;;;;;9.65;4.90;;;;;;;5.66;35.75;101486.16;5044736;28;20021;-63
2022/03/13 07:28:55;;;;;;;11.43;5.70;;;;;;;5.56;36.16;101490.16;5044686;28;20443;-62
2022/03/13 07:31:20;;;;;;;14.43;5.57;;;;;;;5.95;35.71;101482.69;5044278;28;20018;-62
2022/03/13 07:33:46;;;;;;;10.07;5.05;;;;;;;6.26;34.67;101490.44;5044716;28;20045;-63
2022/03/13 07:36:11;;;;;;;8.63;5.60;;;;;;;6.17;35.13;101479.03;5043317;28;20045;-62
2022/03/13 07:38:36;;;;;;;8.30;4.30;;;;;;;6.49;33.87;101487.56;5044639;28;20033;-62
2022/03/13 07:41:03;;;;;;;9.63;5.38;;;;;;;6.32;33.61;101485.44;5026608;28;20071;-62
2022/03/13 07:43:29;;;;;;;8.63;3.58;;;;;;;6.51;33.56;101485.91;5044305;28;20013;-61
2022/03/13 07:45:54;;;;;;;13.45;7.38;;;;;;;6.34;33.81;101493.22;5044066;28;20025;-62
2022/03/13 07:48:19;;;;;;;12.45;5.70;;;;;;;6.60;33.22;101483.56;5044168;28;20105;-62
2022/03/13 07:50:45;;;;;;;16.45;6.65;;;;;;;6.54;33.44;101485.97;5044279;28;20458;-63
2022/03/13 07:53:10;;;;;;;10.73;5.40;;;;;;;6.72;33.29;101489.88;5044133;28;20052;-63
2022/03/13 07:55:35;;;;;;;11.70;5.32;;;;;;;6.83;32.60;101475.53;5044222;28;20025;-64
2022/03/13 07:58:01;;;;;;;7.97;4.85;;;;;;;6.90;32.36;101474.81;5044107;28;20025;-63
2022/03/13 08:00:26;;;;;;;12.55;6.22;;;;;;;6.92;32.46;101485.19;5043756;28;20060;-64
2022/03/13 08:02:53;;;;;;;7.07;4.57;;;;;;;7.17;31.39;101481.47;5043827;28;20040;-64
2022/03/13 08:05:23;;;;;;;14.35;7.60;;;;;;;7.04;31.61;101489.78;5044089;28;20025;-61
2022/03/13 08:07:49;;;;;;;11.52;5.90;;;;;;;7.27;30.99;101482.56;5043856;28;20032;-62
2022/03/13 08:10:20;;;;;;;8.63;5.05;;;;;;;7.45;30.54;101476.06;5043767;28;20021;-63
2022/03/13 08:12:47;;;;;;;14.97;7.73;;;;;;;7.30;30.52;101468.88;5043827;28;20032;-62
2022/03/13 08:15:12;;;;;;;11.25;4.50;;;;;;;7.66;29.84;101479.94;5043535;28;20041;-63
2022/03/13 08:17:38;;;;;;;14.13;7.85;;;;;;;7.61;29.84;101479.84;5043696;28;20083;-62
2022/03/13 08:20:04;;;;;;;19.02;8.00;;;;;;;7.49;30.45;101477.00;5025584;28;20124;-61
2022/03/13 08:22:30;;;;;;;11.52;6.10;;;;;;;7.89;28.64;101459.72;5043497;28;20022;-65
2022/03/13 08:24:55;;;;;;;11.38;6.72;;;;;;;8.09;28.38;101489.41;5043492;28;20025;-66
2022/03/13 08:27:20;;;;;;;13.70;6.60;;;;;;;7.94;29.04;101486.56;5043462;28;20021;-67
2022/03/13 08:29:46;;;;;;;14.10;7.13;;;;;;;8.24;28.74;101497.47;5043455;28;20381;-66
2022/03/13 08:32:11;;;;;;;8.65;5.15;;;;;;;8.61;27.81;101476.59;5042987;28;20026;-66
2022/03/13 08:34:38;;;;;;;10.88;4.97;;;;;;;8.71;27.57;101458.59;5043756;28;20024;-67
2022/03/13 08:37:04;;;;;;;11.02;4.75;;;;;;;8.93;27.19;101472.78;5043698;28;20060;-65
2022/03/13 08:39:30;;;;;;;13.30;6.75;;;;;;;9.02;26.83;101479.84;5043599;28;20033;-68
2022/03/13 08:41:55;;;;;;;18.83;6.88;;;;;;;9.20;26.99;101470.59;5043454;28;20025;-65
2022/03/13 08:44:20;;;;;;;10.30;5.90;;;;;;;9.51;26.09;101473.59;5043244;28;20512;-66
2022/03/13 08:46:46;;;;;;;11.80;6.10;;;;;;;9.51;25.77;101447.69;5042941;28;20029;-63
2022/03/13 08:49:13;;;;;;;9.85;5.00;;;;;;;9.56;25.44;101477.13;5043104;28;20084;-63
2022/03/13 08:51:38;;;;;;;13.55;7.25;;;;;;;9.38;25.87;101475.16;5042890;28;20028;-62
2022/03/13 08:54:04;;;;;;;11.70;6.45;;;;;;;9.52;25.38;101462.41;5042942;28;20029;-63
2022/03/13 08:56:29;;;;;;;14.48;7.85;;;;;;;9.54;25.42;101473.63;5042851;28;20341;-62
2022/03/13 08:58:55;;;;;;;14.88;5.47;;;;;;;9.92;24.73;101475.84;5043166;28;20017;-62
2022/03/13 09:01:22;;;;;;;11.25;5.82;;;;;;;9.91;24.32;101471.50;5042599;28;20022;-62
2022/03/13 09:03:48;;;;;;;10.77;6.00;;;;;;;9.84;24.54;101467.09;5042991;28;20036;-61
2022/03/13 09:06:13;;;;;;;11.73;8.20;;;;;;;9.85;24.38;101463.66;5042755;28;20030;-63
2022/03/13 09:08:39;;;;;;;12.82;5.90;;;;;;;10.15;23.45;101458.78;5024928;28;20036;-63
2022/03/13 09:11:04;;;;;;;18.73;7.60;;;;;;;10.19;24.30;101477.84;5042400;28;20049;-63
2022/03/13 09:13:30;;;;;;;10.93;4.93;;;;;;;10.79;23.07;101480.16;5042951;28;20025;-63
2022/03/13 09:15:56;;;;;;;6.25;2.92;;;;;;;10.94;22.95;101474.22;5042535;28;20052;-62
2022/03/13 09:18:22;;;;;;;11.98;5.75;;;;;;;11.01;22.57;101477.72;5042653;28;20029;-63
2022/03/13 09:20:47;;;;;;;10.82;5.55;;;;;;;10.86;22.54;101476.75;5042780;28;20083;-62
2022/03/13 09:23:13;;;;;;;5.15;4.03;;;;;;;11.03;22.21;101481.22;5042316;28;20025;-62
2022/03/13 09:25:39;;;;;;;10.15;3.58;;;;;;;11.21;21.86;101484.78;5042794;28;20063;-63
2022/03/13 09:28:05;;;;;;;8.68;4.13;;;;;;;11.28;21.63;101469.25;5042634;28;20052;-62
2022/03/13 09:30:30;;;;;;;10.60;4.35;;;;;;;11.37;21.89;101468.41;5042220;28;20025;-63
2022/03/13 09:32:56;;;;;;;7.40;4.20;;;;;;;11.54;21.55;101467.63;5042563;28;20093;-64
2022/03/13 09:35:21;;;;;;;5.68;2.97;;;;;;;11.78;20.93;101469.47;5042698;28;20045;-73
2022/03/13 09:37:49;;;;;;;10.20;5.53;;;;;;;11.83;20.74;101469.50;5042496;28;20057;-64
2022/03/13 09:40:17;;;;;;;6.82;4.22;;;;;;;12.08;20.41;101477.41;5042908;28;20033;-65
2022/03/13 09:42:42;;;;;;;8.10;3.60;;;;;;;11.99;20.45;101466.94;5042540;28;20025;-64
2022/03/13 09:45:08;;;;;;;9.90;3.50;;;;;;;12.02;20.42;101483.44;5042533;28;20021;-64
2022/03/13 09:47:36;;;;;;;4.90;2.75;;;;;;;12.18;20.45;101467.88;5042787;28;20470;-66
2022/03/13 09:50:01;;;;;;;9.13;4.10;;;;;;;12.27;20.49;101464.41;5042521;28;20032;-66
2022/03/13 09:52:27;;;;;;;7.03;2.90;;;;;;;12.64;19.39;101467.06;5042485;28;20112;-63
2022/03/13 09:54:52;;;;;;;8.27;3.92;;;;;;;12.42;19.87;101471.38;5042869;28;20021;-67
2022/03/13 09:57:19;;;;;;;7.57;4.63;;;;;;;12.45;19.80;101493.94;5024934;28;20434;-63
2022/03/13 09:59:46;;;;;;;11.07;4.70;;;;;;;12.68;19.57;101472.25;5045198;28;20021;-67
2022/03/13 10:02:11;;;;;;;11.35;4.40;;;;;;;12.72;19.62;101463.56;5046051;28;20022;-65
2022/03/13 10:04:36;;;;;;;11.77;4.25;;;;;;;12.71;19.52;101443.59;5046671;28;20025;-62
2022/03/13 10:07:12;;;;;;;11.85;5.82;;;;;;;12.73;19.66;101474.00;5046310;28;20466;-66
2022/03/13 10:09:40;;;;;;;5.10;2.88;;;;;;;13.14;19.12;101479.16;5046133;28;20084;-64
2022/03/13 10:12:18;;;;;;;7.10;3.67;;;;;;;13.60;19.03;101478.19;5045980;28;20021;-64
2022/03/13 10:15:16;;;;;;;8.40;4.28;;;;;;;14.40;18.42;101482.13;5045955;28;20047;-67
2022/03/13 10:17:42;;;;;;;9.38;5.18;;;;;;;14.80;18.70;101483.56;5002000;28;20048;-65
2022/03/13 10:20:38;;;;;;;12.55;5.07;;;;;;;15.52;17.01;101472.38;5046013;28;20386;-63
2022/03/13 10:23:10;;;;;;;8.45;4.40;;;;;;;15.47;16.91;101475.94;5030012;28;20030;-66
2022/03/13 10:25:38;;;;;;;5.32;3.38;;;;;;;15.26;16.72;101474.41;5046015;28;20051;-66
2022/03/13 10:28:22;;;;;;;7.72;4.93;;;;;;;14.75;17.08;101491.44;5027871;28;20026;-74
2022/03/13 10:30:49;;;;;;;5.60;3.65;;;;;;;15.01;16.55;101479.03;5045494;28;20111;-67
2022/03/13 10:33:15;;;;;;;8.32;4.93;;;;;;;14.72;16.95;101479.25;5027769;28;20018;-63
2022/03/13 10:35:40;;;;;;;7.95;4.45;;;;;;;14.56;16.74;101467.19;5045859;28;20480;-61
2022/03/13 10:38:20;;;;;;;9.00;4.68;;;;;;;14.39;16.99;101470.81;5045666;28;20109;-68
2022/03/13 10:40:50;;;;;;;4.57;3.03;;;;;;;14.83;16.12;101480.94;5045534;28;20025;-69
2022/03/13 10:43:20;;;;;;;7.10;4.30;;;;;;;15.01;15.20;101481.66;5027952;28;20032;-70
2022/03/13 10:45:53;;;;;;;4.80;2.83;;;;;;;14.87;15.15;101462.59;5045518;28;20444;-68
2022/03/13 10:48:23;;;;;;;9.65;4.55;;;;;;;14.72;16.36;101474.03;5045600;28;20056;-72
2022/03/13 10:50:51;;;;;;;12.30;4.65;;;;;;;14.93;15.56;101461.69;5045456;28;20025;-63
2022/03/13 10:53:18;;;;;;;9.80;3.88;;;;;;;15.13;15.61;101473.66;5045457;28;20021;-64
2022/03/13 10:55:44;;;;;;;9.32;3.50;;;;;;;15.35;15.30;101476.06;5045566;28;20339;-62
2022/03/13 10:58:10;;;;;;;6.20;3.70;;;;;;;15.25;14.59;101449.16;5045675;28;20014;-62
2022/03/13 11:00:35;;;;;;;7.20;3.05;;;;;;;14.77;15.32;101452.22;5045464;28;20095;-62
2022/03/13 11:03:14;;;;;;;6.43;3.08;;;;;;;14.91;14.54;101463.44;5045467;28;20584;-62
2022/03/13 11:05:40;;;;;;;5.53;3.00;;;;;;;14.85;14.82;101467.00;5045402;28;20022;-66
2022/03/13 11:08:07;;;;;;;8.00;3.95;;;;;;;14.67;14.83;101461.88;5045229;28;20025;-65
2022/03/13 11:10:35;;;;;;;5.70;2.92;;;;;;;14.89;14.83;101451.28;5043814;28;20028;-66
2022/03/13 11:13:03;;;;;;;5.38;3.00;;;;;;;14.70;14.62;101457.50;5045243;28;20032;-66
2022/03/13 11:15:29;;;;;;;4.85;2.63;;;;;;;14.69;14.54;101465.34;5045164;28;20021;-70
2022/03/13 11:17:56;;;;;;;4.47;2.85;;;;;;;14.68;14.79;101454.00;5044704;28;20014;-68
2022/03/13 11:20:24;;;;;;;4.28;2.45;;;;;;;14.76;14.59;101448.72;5044986;28;20021;-73
2022/03/13 11:22:49;;;;;;;4.30;3.13;;;;;;;14.84;14.91;101446.94;5044954;28;20025;-69
2022/03/13 11:25:16;;;;;;;7.00;2.70;;;;;;;15.13;14.46;101439.66;5044811;28;20025;-67
2022/03/13 11:27:42;;;;;;;9.70;4.32;;;;;;;15.14;14.97;101453.63;5044981;28;20044;-71